createdAt,value
2023-06-30T00:01:38.863Z,36.20
2023-06-30T00:04:41.120Z,36.20
2023-06-30T00:07:46.688Z,36.20
2023-06-30T00:10:48.967Z,36.30
2023-06-30T00:13:56.355Z,36.30
2023-06-30T00:16:58.650Z,36.30
2023-06-30T00:20:00.971Z,36.30
2023-06-30T00:23:03.514Z,36.30
2023-06-30T00:26:05.688Z,36.30
2023-06-30T00:29:08.857Z,36.30
2023-06-30T00:32:10.828Z,36.30
2023-06-30T00:35:13.063Z,36.30
2023-06-30T00:38:15.149Z,36.40
2023-06-30T00:41:17.462Z,36.40
2023-06-30T00:44:19.443Z,36.40
2023-06-30T00:47:22.004Z,36.40
2023-06-30T00:50:24.129Z,36.40
2023-06-30T00:53:26.530Z,36.50
2023-06-30T00:56:28.553Z,36.50
2023-06-30T00:59:30.764Z,36.50
2023-06-30T01:02:35.489Z,36.60
2023-06-30T01:05:44.661Z,36.60
2023-06-30T01:09:08.244Z,36.60
2023-06-30T01:12:10.883Z,36.60
2023-06-30T01:15:15.001Z,36.60
2023-06-30T01:18:21.036Z,36.60
2023-06-30T01:21:23.984Z,36.60
2023-06-30T01:24:28.450Z,36.70
2023-06-30T01:27:31.257Z,36.60
2023-06-30T01:30:34.516Z,36.70
2023-06-30T01:33:40.493Z,36.60
2023-06-30T01:36:42.746Z,36.60
2023-06-30T01:39:44.698Z,36.60
2023-06-30T01:42:48.600Z,36.60
2023-06-30T01:45:51.115Z,36.60
2023-06-30T01:48:53.583Z,36.60
2023-06-30T01:51:55.639Z,36.60
2023-06-30T01:54:58.044Z,36.60
2023-06-30T01:58:00.040Z,36.60
2023-06-30T02:01:02.427Z,36.60
2023-06-30T02:04:04.730Z,36.60
2023-06-30T02:07:07.042Z,36.70
2023-06-30T02:10:09.652Z,36.60
2023-06-30T02:13:12.132Z,36.60
2023-06-30T02:16:15.752Z,36.50
2023-06-30T02:19:18.594Z,36.60
2023-06-30T02:22:20.553Z,36.60
2023-06-30T02:25:22.909Z,36.60
2023-06-30T02:28:26.646Z,36.70
2023-06-30T02:31:29.058Z,36.70
2023-06-30T02:34:30.993Z,36.60
2023-06-30T02:37:33.894Z,36.60
2023-06-30T02:40:37.529Z,36.70
2023-06-30T02:43:39.820Z,36.60
2023-06-30T02:46:41.798Z,36.50
2023-06-30T02:49:44.117Z,36.50
2023-06-30T02:52:46.081Z,36.60
2023-06-30T02:55:48.693Z,36.60
2023-06-30T02:58:51.616Z,36.70
2023-06-30T03:01:54.016Z,36.80
2023-06-30T03:04:57.146Z,36.80
2023-06-30T03:07:59.562Z,36.80
2023-06-30T03:11:01.721Z,36.80
2023-06-30T03:14:04.060Z,36.80
2023-06-30T03:17:06.154Z,36.80
2023-06-30T03:20:11.569Z,36.90
2023-06-30T03:23:14.904Z,37.00
2023-06-30T03:26:17.210Z,37.00
2023-06-30T03:29:19.113Z,37.00
2023-06-30T03:32:21.381Z,37.00
2023-06-30T03:35:23.417Z,36.90
2023-06-30T03:38:25.898Z,37.00
2023-06-30T03:41:28.021Z,37.00
2023-06-30T03:44:30.366Z,37.10
2023-06-30T03:47:32.565Z,37.10
2023-06-30T03:50:34.855Z,37.10
2023-06-30T03:53:36.857Z,37.10
2023-06-30T03:56:39.157Z,37.10
2023-06-30T03:59:41.131Z,37.10
2023-06-30T04:02:43.453Z,37.10
2023-06-30T04:05:45.814Z,37.00
2023-06-30T04:08:48.170Z,37.10
2023-06-30T04:11:51.346Z,37.20
2023-06-30T04:14:53.563Z,37.30
2023-06-30T04:17:55.625Z,37.40
2023-06-30T04:20:57.800Z,37.30
2023-06-30T04:23:59.889Z,37.40
2023-06-30T04:27:02.151Z,37.40
2023-06-30T04:30:04.786Z,37.40
2023-06-30T04:33:07.198Z,37.40
2023-06-30T04:36:09.689Z,37.60
2023-06-30T04:39:12.151Z,37.60
2023-06-30T04:42:15.679Z,37.40
2023-06-30T04:45:19.278Z,37.50
2023-06-30T04:48:21.468Z,37.60
2023-06-30T04:51:23.706Z,37.70
2023-06-30T04:54:25.687Z,37.80
2023-06-30T04:57:28.125Z,37.90
2023-06-30T05:00:30.281Z,38.10
2023-06-30T05:03:32.965Z,38.10
2023-06-30T05:06:34.971Z,38.30
2023-06-30T05:09:37.310Z,38.50
2023-06-30T05:12:39.328Z,38.70
2023-06-30T05:15:41.643Z,38.90
2023-06-30T05:18:43.748Z,39.20
2023-06-30T05:21:46.009Z,39.50
2023-06-30T05:24:48.779Z,39.80
2023-06-30T05:27:51.038Z,40.10
2023-06-30T05:30:53.095Z,40.70
2023-06-30T05:33:55.370Z,40.80
2023-06-30T05:36:57.492Z,40.90
2023-06-30T05:39:59.774Z,41.10
2023-06-30T05:43:01.784Z,41.00
2023-06-30T05:46:04.098Z,41.20
2023-06-30T05:49:07.061Z,41.30
2023-06-30T05:52:09.549Z,41.40
2023-06-30T05:55:11.492Z,41.50
2023-06-30T05:58:13.779Z,41.70
2023-06-30T06:01:15.808Z,41.70
2023-06-30T06:04:19.571Z,41.70
2023-06-30T06:07:21.915Z,41.70
2023-06-30T06:10:24.234Z,41.50
2023-06-30T06:13:37.036Z,41.20
2023-06-30T06:16:39.365Z,41.30
2023-06-30T06:19:41.383Z,41.40
2023-06-30T06:22:43.666Z,41.60
2023-06-30T06:25:45.813Z,41.80
2023-06-30T06:28:48.137Z,41.70
2023-06-30T06:31:51.106Z,41.70
2023-06-30T06:34:53.612Z,41.70
2023-06-30T06:37:55.651Z,41.70
2023-06-30T06:40:57.936Z,41.70
2023-06-30T06:43:59.906Z,41.70
2023-06-30T06:47:39.812Z,41.60
2023-06-30T06:50:41.786Z,41.50
2023-06-30T06:53:44.030Z,41.50
2023-06-30T06:56:48.347Z,41.60
2023-06-30T06:59:50.599Z,41.60
2023-06-30T07:02:53.622Z,41.70
2023-06-30T07:05:57.911Z,41.80
2023-06-30T07:09:00.257Z,41.90
2023-06-30T07:12:02.544Z,42.00
2023-06-30T07:15:05.059Z,42.00
2023-06-30T07:18:07.637Z,42.10
2023-06-30T07:21:09.724Z,42.00
2023-06-30T07:24:12.089Z,42.00
2023-06-30T07:27:14.114Z,42.20
2023-06-30T07:30:17.508Z,42.30
2023-06-30T07:33:19.598Z,42.50
2023-06-30T07:36:21.898Z,42.50
2023-06-30T07:39:23.959Z,42.80
2023-06-30T07:42:26.242Z,42.90
2023-06-30T07:45:28.234Z,43.10
2023-06-30T07:48:30.578Z,43.10
2023-06-30T07:51:33.080Z,43.10
2023-06-30T07:54:35.299Z,43.10
2023-06-30T07:57:37.278Z,42.90
2023-06-30T08:00:39.554Z,42.90
2023-06-30T08:03:41.970Z,43.00
2023-06-30T08:06:44.371Z,43.00
2023-06-30T08:09:46.327Z,42.90
2023-06-30T08:12:48.718Z,43.10
2023-06-30T08:15:51.630Z,43.20
2023-06-30T08:18:54.535Z,43.00
2023-06-30T08:21:56.654Z,43.10
2023-06-30T08:24:59.201Z,43.00
2023-06-30T08:28:01.330Z,43.10
2023-06-30T08:31:04.056Z,43.30
2023-06-30T08:34:06.709Z,43.30
2023-06-30T08:37:09.201Z,43.30
2023-06-30T08:40:11.894Z,43.10
2023-06-30T08:43:15.416Z,43.10
2023-06-30T08:46:23.516Z,43.30
2023-06-30T08:49:26.948Z,43.40
2023-06-30T08:52:30.018Z,43.50
2023-06-30T08:55:32.744Z,43.50
2023-06-30T08:58:35.090Z,43.50
2023-06-30T09:01:39.526Z,43.20
2023-06-30T09:04:42.543Z,43.30
2023-06-30T09:07:55.043Z,43.30
2023-06-30T09:10:57.689Z,43.30
2023-06-30T09:14:05.054Z,43.20
2023-06-30T09:17:07.625Z,43.10
2023-06-30T09:20:10.980Z,43.00
2023-06-30T09:23:15.271Z,42.90
2023-06-30T09:26:18.372Z,42.70
2023-06-30T09:29:24.741Z,42.10
2023-06-30T09:32:31.866Z,42.00
2023-06-30T09:35:41.286Z,41.90
2023-06-30T09:38:43.637Z,41.90
2023-06-30T09:41:47.390Z,41.90
2023-06-30T09:44:53.404Z,42.10
2023-06-30T09:47:55.681Z,41.90
2023-06-30T09:50:58.586Z,41.70
2023-06-30T09:54:02.117Z,41.70
2023-06-30T09:57:06.455Z,41.90
2023-06-30T10:00:15.779Z,41.90
2023-06-30T10:03:25.689Z,41.90
2023-06-30T10:06:29.624Z,41.90
2023-06-30T10:09:34.436Z,41.90
2023-06-30T10:12:38.344Z,42.00
2023-06-30T10:15:41.023Z,42.00
2023-06-30T10:18:47.945Z,42.00
2023-06-30T10:21:51.011Z,42.00
2023-06-30T10:24:54.456Z,42.10
2023-06-30T10:27:57.265Z,42.20
2023-06-30T10:30:59.286Z,42.10
2023-06-30T10:34:02.421Z,42.20
2023-06-30T10:37:04.980Z,42.20
2023-06-30T10:40:30.758Z,42.20
2023-06-30T10:44:04.855Z,42.30
2023-06-30T10:47:07.543Z,42.40
2023-06-30T10:50:14.628Z,42.50
2023-06-30T10:53:20.461Z,42.70
2023-06-30T10:56:25.393Z,42.70
2023-06-30T10:59:40.321Z,42.80
2023-06-30T11:03:06.954Z,42.90
2023-06-30T11:06:22.397Z,42.90
2023-06-30T11:09:24.369Z,43.00
2023-06-30T11:12:28.838Z,43.00
2023-06-30T11:15:39.420Z,43.20
2023-06-30T11:18:42.302Z,43.20
2023-06-30T11:22:05.759Z,43.30
2023-06-30T11:25:12.272Z,43.30
2023-06-30T11:28:14.544Z,43.20
2023-06-30T11:31:17.549Z,43.20
2023-06-30T11:34:20.219Z,43.00
2023-06-30T11:37:23.167Z,42.80
2023-06-30T11:40:25.555Z,42.60
2023-06-30T11:43:33.471Z,42.50
2023-06-30T11:46:37.517Z,42.60
2023-06-30T11:49:40.248Z,42.70
2023-06-30T11:52:42.469Z,42.80
2023-06-30T11:55:45.613Z,43.20
2023-06-30T11:58:51.801Z,43.30
2023-06-30T12:01:54.575Z,43.30
2023-06-30T12:04:56.639Z,43.50
2023-06-30T12:07:59.217Z,43.70
2023-06-30T12:11:04.834Z,43.90
2023-06-30T12:14:16.047Z,43.90
2023-06-30T12:17:19.304Z,43.90
2023-06-30T12:20:38.990Z,44.00
2023-06-30T12:23:45.149Z,44.10
2023-06-30T12:26:49.743Z,44.20
2023-06-30T12:29:51.748Z,44.30
2023-06-30T12:32:59.494Z,44.20
2023-06-30T12:36:07.304Z,43.80
2023-06-30T12:39:09.690Z,43.80
2023-06-30T12:42:12.656Z,43.70
2023-06-30T12:45:17.292Z,43.50
2023-06-30T12:48:19.247Z,43.40
2023-06-30T12:51:21.548Z,43.20
2023-06-30T12:54:23.914Z,42.80
2023-06-30T12:57:26.134Z,43.00
2023-06-30T13:00:28.213Z,43.20
2023-06-30T13:03:30.633Z,43.40
2023-06-30T13:06:32.722Z,43.40
2023-06-30T13:09:35.098Z,43.30
2023-06-30T13:12:41.395Z,43.00
2023-06-30T13:15:43.922Z,43.00
2023-06-30T13:18:47.186Z,43.20
2023-06-30T13:21:50.735Z,43.00
2023-06-30T13:24:53.831Z,42.80
2023-06-30T13:27:56.339Z,43.10
2023-06-30T13:30:58.354Z,43.10
2023-06-30T13:34:00.694Z,43.20
2023-06-30T13:37:02.687Z,43.10
2023-06-30T13:40:05.971Z,43.10
2023-06-30T13:43:08.114Z,43.00
2023-06-30T13:46:10.449Z,42.80
2023-06-30T13:49:12.514Z,42.90
2023-06-30T13:52:14.980Z,43.00
2023-06-30T13:55:17.032Z,42.90
2023-06-30T13:58:19.252Z,43.00
2023-06-30T14:01:21.369Z,43.10
2023-06-30T14:04:23.663Z,43.30
2023-06-30T14:07:25.700Z,43.40
2023-06-30T14:10:28.827Z,43.50
2023-06-30T14:13:30.897Z,43.60
2023-06-30T14:16:34.180Z,43.60
2023-06-30T14:19:36.650Z,43.70
2023-06-30T14:22:39.242Z,43.70
2023-06-30T14:25:41.745Z,43.70
2023-06-30T14:28:44.239Z,43.40
2023-06-30T14:31:46.276Z,43.20
2023-06-30T14:34:48.804Z,43.20
2023-06-30T14:37:50.757Z,43.20
2023-06-30T14:40:53.013Z,43.40
2023-06-30T14:43:55.030Z,43.60
2023-06-30T14:46:57.411Z,43.30
2023-06-30T14:49:59.438Z,43.50
2023-06-30T14:53:02.013Z,43.50
2023-06-30T14:56:04.164Z,43.40
2023-06-30T14:59:06.480Z,43.40
2023-06-30T15:02:08.550Z,43.10
2023-06-30T15:05:11.043Z,42.90
2023-06-30T15:08:13.383Z,43.00
2023-06-30T15:11:15.964Z,43.00
2023-06-30T15:14:17.978Z,43.10
2023-06-30T15:17:20.362Z,42.90
2023-06-30T15:20:22.407Z,42.50
2023-06-30T15:23:24.752Z,42.50
2023-06-30T15:26:26.720Z,42.40
2023-06-30T15:29:28.977Z,42.20
2023-06-30T15:32:31.056Z,42.00
2023-06-30T15:35:33.347Z,41.80
2023-06-30T15:38:35.339Z,41.70
2023-06-30T15:41:37.873Z,41.70
2023-06-30T15:44:39.820Z,41.60
2023-06-30T15:47:42.288Z,41.60
2023-06-30T15:50:44.575Z,41.40
2023-06-30T15:53:47.490Z,41.30
2023-06-30T15:56:49.474Z,41.10
2023-06-30T15:59:51.734Z,41.00
2023-06-30T16:02:55.158Z,40.90
2023-06-30T16:05:57.629Z,40.70
2023-06-30T16:08:59.707Z,40.60
2023-06-30T16:12:01.968Z,40.60
2023-06-30T16:15:05.421Z,40.40
2023-06-30T16:18:07.807Z,40.40
2023-06-30T16:21:09.910Z,40.40
2023-06-30T16:24:12.237Z,40.20
2023-06-30T16:27:14.366Z,40.20
2023-06-30T16:30:24.856Z,40.20
2023-06-30T16:33:28.215Z,40.20
2023-06-30T16:36:30.731Z,40.10
2023-06-30T16:39:32.773Z,40.10
2023-06-30T16:42:34.998Z,40.00
2023-06-30T16:45:37.063Z,40.00
2023-06-30T16:48:39.453Z,39.80
2023-06-30T16:51:42.723Z,38.90
2023-06-30T16:54:45.037Z,38.50
2023-06-30T16:57:48.514Z,38.00
2023-06-30T17:00:50.964Z,37.00
2023-06-30T17:03:52.932Z,36.80
2023-06-30T17:06:55.155Z,37.20
2023-06-30T17:09:57.119Z,37.10
2023-06-30T17:13:00.066Z,36.90
2023-06-30T17:16:02.175Z,37.00
2023-06-30T17:19:04.465Z,37.40
2023-06-30T17:22:06.855Z,37.90
2023-06-30T17:25:09.201Z,38.10
2023-06-30T17:28:11.222Z,38.60
2023-06-30T17:31:13.542Z,38.70
2023-06-30T17:34:15.789Z,38.80
2023-06-30T17:37:18.021Z,38.80
2023-06-30T17:40:21.221Z,38.80
2023-06-30T17:43:23.674Z,38.90
2023-06-30T17:46:25.748Z,38.70
2023-06-30T17:49:30.215Z,38.70
2023-06-30T17:52:32.262Z,38.70
2023-06-30T17:55:34.452Z,38.70
2023-06-30T17:58:36.430Z,38.60
2023-06-30T18:01:39.097Z,38.40
2023-06-30T18:04:41.244Z,38.20
2023-06-30T18:07:43.769Z,38.40
2023-06-30T18:10:49.047Z,38.40
2023-06-30T18:13:56.613Z,38.20
2023-06-30T18:17:00.037Z,38.10
2023-06-30T18:20:02.427Z,38.00
2023-06-30T18:23:04.408Z,38.00
2023-06-30T18:26:07.008Z,38.10
2023-06-30T18:29:09.326Z,38.00
2023-06-30T18:32:11.823Z,38.10
2023-06-30T18:35:14.112Z,38.20
2023-06-30T18:38:16.449Z,38.20
2023-06-30T18:41:18.534Z,38.30
2023-06-30T18:44:20.762Z,38.40
2023-06-30T18:47:22.919Z,38.40
2023-06-30T18:50:25.245Z,38.50
2023-06-30T18:53:27.235Z,38.50
2023-06-30T18:56:30.039Z,38.50
2023-06-30T18:59:32.270Z,38.40
2023-06-30T19:02:34.749Z,38.40
2023-06-30T19:05:37.292Z,38.10
2023-06-30T19:08:39.530Z,38.00
2023-06-30T19:11:41.569Z,37.60
2023-06-30T19:14:43.905Z,37.40
2023-06-30T19:17:45.881Z,37.40
2023-06-30T19:20:48.480Z,37.10
2023-06-30T19:23:50.454Z,37.20
2023-06-30T19:26:52.948Z,36.90
2023-06-30T19:29:55.238Z,36.70
2023-06-30T19:32:57.505Z,36.30
2023-06-30T19:35:59.596Z,36.50
2023-06-30T19:39:01.901Z,36.60
2023-06-30T19:42:04.962Z,36.50
2023-06-30T19:45:07.510Z,36.40
2023-06-30T19:48:09.709Z,36.20
2023-06-30T19:51:12.086Z,36.10
2023-06-30T19:54:14.209Z,36.20
2023-06-30T19:57:16.895Z,36.10
2023-06-30T20:00:19.017Z,36.00
2023-06-30T20:03:21.723Z,35.90
2023-06-30T20:06:24.022Z,35.90
2023-06-30T20:09:26.347Z,35.90
2023-06-30T20:12:28.534Z,36.10
2023-06-30T20:15:32.192Z,36.50
2023-06-30T20:18:34.253Z,36.40
2023-06-30T20:21:36.832Z,36.50
2023-06-30T20:24:38.995Z,36.70
2023-06-30T20:27:43.643Z,36.80
2023-06-30T20:30:48.150Z,36.60
2023-06-30T20:33:50.742Z,36.50
2023-06-30T20:36:52.885Z,36.50
2023-06-30T20:39:57.160Z,36.40
2023-06-30T20:42:59.572Z,36.40
2023-06-30T20:46:01.908Z,36.60
2023-06-30T20:49:03.940Z,36.80
2023-06-30T20:52:08.878Z,36.50
2023-06-30T20:55:10.862Z,36.70
2023-06-30T20:58:13.133Z,36.80
2023-06-30T21:01:15.184Z,36.80
2023-06-30T21:04:18.720Z,37.10
2023-06-30T21:07:20.891Z,36.70
2023-06-30T21:10:23.197Z,36.50
2023-06-30T21:13:25.217Z,36.60
2023-06-30T21:16:27.633Z,36.60
2023-06-30T21:19:29.783Z,36.80
2023-06-30T21:22:32.333Z,36.40
2023-06-30T21:25:34.287Z,36.60
2023-06-30T21:28:36.494Z,36.60
2023-06-30T21:31:38.509Z,36.70
2023-06-30T21:34:40.885Z,36.80
2023-06-30T21:37:42.962Z,37.00
2023-06-30T21:40:45.564Z,37.00
2023-06-30T21:43:47.811Z,36.90
2023-06-30T21:46:50.087Z,36.80
2023-06-30T21:49:52.875Z,36.90
2023-06-30T21:52:55.303Z,36.90
2023-06-30T21:55:57.285Z,37.00
2023-06-30T21:58:59.771Z,37.10
2023-06-30T22:02:01.813Z,37.10
2023-06-30T22:05:04.450Z,37.00
2023-06-30T22:08:06.503Z,37.00
2023-06-30T22:11:08.771Z,36.90
2023-06-30T22:14:13.430Z,37.00
2023-06-30T22:17:15.841Z,36.80
2023-06-30T22:20:18.505Z,36.70
2023-06-30T22:23:21.345Z,36.70
2023-06-30T22:26:23.423Z,36.70
2023-06-30T22:29:25.756Z,36.60
2023-06-30T22:32:30.153Z,36.80
2023-06-30T22:35:32.464Z,36.90
2023-06-30T22:38:34.467Z,37.00
2023-06-30T22:41:36.748Z,37.00
2023-06-30T22:44:38.752Z,36.30
2023-06-30T22:47:41.133Z,36.30
2023-06-30T22:50:43.241Z,35.90
2023-06-30T22:53:45.489Z,35.90
2023-06-30T22:56:47.497Z,36.00
2023-06-30T22:59:52.411Z,36.20
2023-06-30T23:02:54.844Z,36.30
2023-06-30T23:05:57.227Z,36.40
2023-06-30T23:08:59.222Z,36.60
2023-06-30T23:12:01.933Z,36.60
2023-06-30T23:15:04.382Z,36.70
2023-06-30T23:18:06.848Z,36.80
2023-06-30T23:21:12.086Z,36.80
2023-06-30T23:24:14.535Z,36.80
2023-06-30T23:27:17.845Z,36.80
2023-06-30T23:30:21.350Z,36.50
2023-06-30T23:33:23.896Z,36.60
2023-06-30T23:36:26.621Z,36.70
2023-06-30T23:39:28.593Z,36.70
2023-06-30T23:42:30.875Z,36.50
2023-06-30T23:45:32.873Z,36.40
2023-06-30T23:48:35.144Z,36.20
2023-06-30T23:51:37.152Z,36.20
2023-06-30T23:54:39.460Z,36.20
2023-06-30T23:57:41.406Z,35.90
